Time;durP1;ratioP1;P1;durP2;ratioP2;P2;SDS_P1;SDS_P2;PMS_P1;PMS_P2;Temp;Humidity;BMP_temperature;BMP_pressure;BME280_temperature;BME280_humidity;BME280_pressure;Samples;Min_cycle;Max_cycle;Signal;HPM_P1;HPM_P2
2022/05/03 00:00:56;;;;;;;8.37;7.57;;;14.70;99.90;;;;;;5057881;28;20418;-81
2022/05/03 00:03:52;;;;;;;11.70;8.70;;;14.60;99.90;;;;;;5051439;28;20438;-81
2022/05/03 00:07:04;;;;;;;8.80;8.10;;;14.60;99.90;;;;;;5038747;28;20437;-81
2022/05/03 00:10:04;;;;;;;8.10;7.33;;;14.60;99.90;;;;;;5056329;28;20437;-81
2022/05/03 00:12:57;;;;;;;11.93;7.50;;;14.60;99.90;;;;;;5032264;28;20437;-81
2022/05/03 00:15:44;;;;;;;9.87;7.70;;;14.60;99.90;;;;;;5059785;28;20484;-81
2022/05/03 00:18:29;;;;;;;8.63;7.80;;;14.60;99.90;;;;;;5067984;28;20437;-81
2022/05/03 00:21:14;;;;;;;10.43;7.43;;;14.70;99.90;;;;;;5024250;28;20623;-81
2022/05/03 00:23:59;;;;;;;7.20;6.70;;;14.70;99.90;;;;;;5049898;28;20474;-81
2022/05/03 00:26:44;;;;;;;7.83;7.07;;;14.60;99.90;;;;;;5049651;28;20515;-81
2022/05/03 00:29:29;;;;;;;10.00;8.37;;;14.60;99.90;;;;;;5050979;28;20433;-82
2022/05/03 00:32:15;;;;;;;8.03;7.30;;;14.60;99.90;;;;;;5068286;28;20417;-81
2022/05/03 00:35:00;;;;;;;8.53;7.70;;;14.60;99.90;;;;;;5066924;28;20980;-82
2022/05/03 00:37:45;;;;;;;9.87;7.60;;;14.60;99.90;;;;;;5049298;28;20474;-81
2022/05/03 00:40:33;;;;;;;8.77;7.43;;;14.60;99.90;;;;;;5051862;28;20452;-83
2022/05/03 00:43:25;;;;;;;7.20;6.60;;;14.60;99.90;;;;;;5045834;28;20446;-81
2022/05/03 00:46:16;;;;;;;8.57;7.80;;;14.60;99.90;;;;;;5031352;28;20652;-81
2022/05/03 00:49:13;;;;;;;7.90;7.20;;;14.60;99.90;;;;;;5036633;28;20433;-81
2022/05/03 00:52:06;;;;;;;7.90;7.10;;;14.60;99.90;;;;;;5048110;28;20395;-80
2022/05/03 00:55:19;;;;;;;7.47;6.67;;;14.50;99.90;;;;;;5055915;28;20481;-81
2022/05/03 00:58:20;;;;;;;9.43;7.20;;;14.50;99.90;;;;;;5033548;28;20582;-81
2022/05/03 01:01:13;;;;;;;7.20;6.60;;;14.50;99.90;;;;;;5068003;28;20406;-80
2022/05/03 01:04:12;;;;;;;7.47;6.80;;;14.50;99.90;;;;;;5044462;28;20939;-82
2022/05/03 01:07:18;;;;;;;7.97;7.33;;;14.40;99.90;;;;;;5045400;28;20441;-82
2022/05/03 01:10:30;;;;;;;8.77;7.97;;;14.40;99.90;;;;;;5065711;28;20382;-81
2022/05/03 01:13:29;;;;;;;10.53;7.73;;;14.40;99.90;;;;;;5067392;28;20465;-80
2022/05/03 01:16:27;;;;;;;8.33;7.53;;;14.40;99.90;;;;;;5068811;28;20406;-81
2022/05/03 01:19:35;;;;;;;11.10;6.50;;;14.40;99.90;;;;;;5062623;28;20386;-81
2022/05/03 01:22:52;;;;;;;8.03;7.33;;;14.40;99.90;;;;;;5071827;28;20440;-81
2022/05/03 01:26:05;;;;;;;10.20;7.00;;;14.30;99.90;;;;;;5070517;28;20432;-81
2022/05/03 01:29:25;;;;;;;7.70;7.00;;;14.30;99.90;;;;;;5071508;28;20446;-81
2022/05/03 01:32:11;;;;;;;7.40;6.70;;;14.30;99.90;;;;;;5051836;28;20405;-82
2022/05/03 01:34:57;;;;;;;7.77;6.97;;;14.30;99.90;;;;;;5058277;28;20541;-82
2022/05/03 01:38:13;;;;;;;8.10;7.40;;;14.30;99.90;;;;;;5071982;28;20445;-82
2022/05/03 01:41:11;;;;;;;7.70;6.77;;;14.30;99.90;;;;;;5072471;28;20385;-80
2022/05/03 01:44:26;;;;;;;13.90;8.43;;;14.30;99.90;;;;;;5071475;28;20410;-80
2022/05/03 01:47:22;;;;;;;9.20;7.97;;;14.30;99.90;;;;;;5058728;28;20425;-80
2022/05/03 01:50:19;;;;;;;9.40;8.03;;;14.30;99.90;;;;;;5067320;28;20498;-79
2022/05/03 01:53:19;;;;;;;9.07;7.90;;;14.20;99.90;;;;;;5080974;28;20390;-80
2022/05/03 01:56:27;;;;;;;15.63;8.70;;;14.20;99.90;;;;;;5076506;28;20469;-80
2022/05/03 01:59:40;;;;;;;9.70;8.70;;;14.10;99.90;;;;;;5071644;28;20386;-81
2022/05/03 02:02:39;;;;;;;10.30;8.03;;;14.10;99.90;;;;;;5056289;28;20426;-80
2022/05/03 02:05:51;;;;;;;9.00;8.20;;;14.10;99.90;;;;;;5070597;28;20495;-82
2022/05/03 02:08:58;;;;;;;9.10;8.00;;;14.10;99.90;;;;;;5063522;28;20414;-82
2022/05/03 02:12:05;;;;;;;9.50;8.07;;;14.10;99.90;;;;;;5052766;28;20775;-82
2022/05/03 02:15:09;;;;;;;11.10;8.00;;;14.10;99.90;;;;;;5066678;28;20494;-81
2022/05/03 02:18:04;;;;;;;11.43;8.47;;;14.00;99.90;;;;;;5056578;28;20917;-81
2022/05/03 02:21:10;;;;;;;9.20;8.23;;;14.00;99.90;;;;;;5036531;28;20438;-81
2022/05/03 02:24:26;;;;;;;11.70;8.50;;;14.00;99.90;;;;;;5051211;28;20514;-81
2022/05/03 02:27:11;;;;;;;10.27;8.07;;;14.00;99.90;;;;;;5060357;28;20437;-81
2022/05/03 02:29:58;;;;;;;8.60;7.80;;;14.00;99.90;;;;;;5060568;28;20444;-81
2022/05/03 02:33:05;;;;;;;8.17;7.37;;;13.90;99.90;;;;;;5070726;28;20441;-81
2022/05/03 02:35:55;;;;;;;10.03;7.63;;;13.90;99.90;;;;;;5058258;28;20422;-82
2022/05/03 02:38:50;;;;;;;9.10;6.70;;;13.80;99.90;;;;;;5052045;28;20406;-81
2022/05/03 02:41:38;;;;;;;9.33;8.10;;;13.80;99.90;;;;;;5062316;28;20421;-81
2022/05/03 02:44:25;;;;;;;9.00;7.80;;;13.80;99.90;;;;;;5040488;28;20770;-81
2022/05/03 02:47:22;;;;;;;8.00;6.93;;;13.80;99.90;;;;;;5061263;28;20494;-81
2022/05/03 02:50:21;;;;;;;9.57;8.67;;;13.80;99.90;;;;;;5056760;28;20430;-81
2022/05/03 02:53:16;;;;;;;9.03;8.10;;;13.80;99.90;;;;;;5068673;28;20425;-80
2022/05/03 02:56:21;;;;;;;7.63;7.03;;;13.70;99.90;;;;;;5069547;28;20480;-81
2022/05/03 03:01:47;;;;;;;12.60;7.93;;;13.70;99.90;;;;;;5049054;28;20429;-81
2022/05/03 03:02:38;;;;;;;9.43;8.23;;;13.70;99.90;;;;;;5067254;28;20429;-81
2022/05/03 03:05:26;;;;;;;9.00;8.20;;;13.70;99.90;;;;;;5068210;28;20512;-82
2022/05/03 03:08:12;;;;;;;8.67;7.87;;;13.60;99.90;;;;;;5051409;28;20523;-81
2022/05/03 03:11:04;;;;;;;9.30;8.60;;;13.60;99.90;;;;;;5067465;28;20457;-82
2022/05/03 03:14:14;;;;;;;9.77;8.97;;;13.60;99.90;;;;;;5054168;28;20499;-81
2022/05/03 03:17:05;;;;;;;7.67;6.97;;;13.50;99.90;;;;;;5069524;28;20391;-80
2022/05/03 03:20:06;;;;;;;8.83;8.03;;;13.50;99.90;;;;;;5048674;28;20453;-81
2022/05/03 03:22:51;;;;;;;8.37;7.57;;;13.40;99.90;;;;;;5048875;28;20426;-83
2022/05/03 03:25:38;;;;;;;9.50;8.60;;;13.40;99.90;;;;;;5064227;28;20556;-80
2022/05/03 03:28:24;;;;;;;9.93;8.23;;;13.40;99.90;;;;;;5053783;28;20430;-80
2022/05/03 03:31:09;;;;;;;9.57;8.60;;;13.30;99.90;;;;;;5050617;28;20460;-80
2022/05/03 03:33:56;;;;;;;8.60;7.80;;;13.30;99.90;;;;;;5052049;28;20449;-81
2022/05/03 03:36:42;;;;;;;11.33;8.03;;;13.20;99.90;;;;;;5067812;28;20413;-84
2022/05/03 03:39:29;;;;;;;9.30;7.70;;;13.10;99.90;;;;;;5068357;28;20381;-81
2022/05/03 03:42:14;;;;;;;8.93;7.30;;;13.10;99.90;;;;;;5069113;28;20960;-81
2022/05/03 03:45:01;;;;;;;10.60;9.60;;;13.00;99.90;;;;;;5053318;28;20428;-81
2022/05/03 03:47:47;;;;;;;9.10;7.60;;;13.00;99.90;;;;;;5067199;28;20441;-81
2022/05/03 03:50:33;;;;;;;9.77;8.50;;;13.00;99.90;;;;;;5034671;28;20422;-81
2022/05/03 03:53:18;;;;;;;8.97;8.07;;;13.00;99.90;;;;;;5048369;28;20451;-80
2022/05/03 03:56:03;;;;;;;8.43;7.67;;;13.00;99.90;;;;;;5033391;28;20473;-81
2022/05/03 03:58:48;;;;;;;12.20;7.50;;;13.00;99.90;;;;;;5048631;28;20437;-81
2022/05/03 04:01:33;;;;;;;9.00;7.97;;;12.90;99.90;;;;;;5048863;28;20383;-81
2022/05/03 04:04:22;;;;;;;10.13;9.13;;;12.80;99.90;;;;;;5066172;28;20545;-81
2022/05/03 04:07:07;;;;;;;10.00;8.80;;;12.80;99.90;;;;;;5054477;28;20824;-81
2022/05/03 04:09:52;;;;;;;10.10;8.43;;;12.90;99.90;;;;;;5042546;28;20417;-83
2022/05/03 04:12:37;;;;;;;9.63;8.73;;;12.90;99.90;;;;;;5069134;28;20495;-82
2022/05/03 04:15:22;;;;;;;9.17;8.27;;;12.90;99.90;;;;;;5041528;28;20458;-82
2022/05/03 04:18:07;;;;;;;9.00;8.13;;;12.90;99.90;;;;;;5067135;28;20544;-81
2022/05/03 04:20:52;;;;;;;9.10;8.20;;;12.90;99.90;;;;;;5058203;28;20456;-80
2022/05/03 04:23:38;;;;;;;9.30;8.10;;;12.80;99.90;;;;;;5051810;28;20494;-81
2022/05/03 04:26:23;;;;;;;8.57;7.77;;;12.80;99.90;;;;;;5043694;28;20745;-80
2022/05/03 04:29:09;;;;;;;9.60;8.63;;;12.80;99.90;;;;;;5050923;28;20440;-82
2022/05/03 04:31:54;;;;;;;8.80;7.90;;;12.80;99.90;;;;;;5048184;28;20426;-81
2022/05/03 04:34:39;;;;;;;8.83;7.90;;;12.90;99.90;;;;;;5048188;28;20449;-81
2022/05/03 04:37:24;;;;;;;9.47;8.53;;;12.80;99.90;;;;;;5061750;28;20497;-82
2022/05/03 04:40:09;;;;;;;8.83;7.93;;;12.80;99.90;;;;;;5067343;28;20425;-81
2022/05/03 04:42:53;;;;;;;9.50;8.53;;;12.80;99.90;;;;;;5068492;28;20451;-81
2022/05/03 04:45:38;;;;;;;8.73;7.50;;;12.80;99.90;;;;;;5046527;28;20413;-82
2022/05/03 04:48:23;;;;;;;9.67;8.40;;;12.80;99.90;;;;;;5078841;28;20401;-81
2022/05/03 04:51:22;;;;;;;9.77;8.83;;;12.80;99.90;;;;;;5075271;28;20428;-78
2022/05/03 04:54:07;;;;;;;9.17;7.73;;;12.90;99.90;;;;;;5072069;28;20540;-81
2022/05/03 04:57:02;;;;;;;14.60;10.43;;;12.90;99.90;;;;;;5060810;28;20506;-81
2022/05/03 04:59:47;;;;;;;10.20;7.80;;;12.90;99.90;;;;;;5072764;28;20394;-81
2022/05/03 05:02:32;;;;;;;9.40;8.40;;;12.90;99.90;;;;;;5041439;28;20386;-81
2022/05/03 05:05:17;;;;;;;8.87;7.97;;;12.90;99.90;;;;;;5071851;28;20477;-81
2022/05/03 05:08:04;;;;;;;10.20;8.20;;;13.00;99.90;;;;;;5062684;28;20440;-82
2022/05/03 05:10:48;;;;;;;11.60;8.87;;;13.00;99.90;;;;;;5065559;28;21023;-82
2022/05/03 05:13:36;;;;;;;9.97;9.00;;;13.10;99.90;;;;;;5070077;28;20917;-82
2022/05/03 05:16:20;;;;;;;10.50;8.93;;;13.10;99.90;;;;;;5060302;28;20530;-83
2022/05/03 05:19:05;;;;;;;10.23;8.10;;;13.10;99.90;;;;;;5068741;28;20518;-82
2022/05/03 05:21:49;;;;;;;9.97;7.93;;;13.20;99.90;;;;;;5050245;28;20453;-80
2022/05/03 05:24:34;;;;;;;9.77;8.77;;;13.20;99.90;;;;;;5065440;28;20429;-82
2022/05/03 05:27:20;;;;;;;13.00;8.57;;;13.20;99.90;;;;;;5064686;28;20441;-81
2022/05/03 05:30:07;;;;;;;14.73;9.80;;;13.30;99.90;;;;;;5018476;28;20533;-83
2022/05/03 05:32:52;;;;;;;11.50;8.40;;;13.30;99.90;;;;;;5057373;28;20421;-83
2022/05/03 05:35:37;;;;;;;11.47;9.30;;;13.30;99.90;;;;;;5037263;28;20506;-82
2022/05/03 05:38:21;;;;;;;12.70;10.27;;;13.40;99.90;;;;;;5063090;28;20433;-82
2022/05/03 05:41:16;;;;;;;11.50;7.93;;;13.50;99.90;;;;;;5003604;28;20427;-81
2022/05/03 05:44:03;;;;;;;9.70;8.43;;;13.70;99.90;;;;;;5012715;28;20458;-84
2022/05/03 05:46:47;;;;;;;9.37;8.50;;;13.70;99.90;;;;;;5019332;28;20459;-83
2022/05/03 05:49:32;;;;;;;9.80;8.83;;;13.80;99.90;;;;;;5019488;28;20817;-83
2022/05/03 05:55:16;;;;;;;8.97;8.07;;;13.80;99.90;;;;;;5018188;28;20523;-84
2022/05/03 05:58:01;;;;;;;11.50;8.80;;;13.90;99.90;;;;;;4991549;28;20388;-84
2022/05/03 06:00:46;;;;;;;8.90;7.67;;;14.00;99.90;;;;;;5014245;28;20467;-83
2022/05/03 06:03:32;;;;;;;8.40;7.60;;;14.00;99.90;;;;;;5011952;28;20486;-83
2022/05/03 06:06:17;;;;;;;8.43;7.47;;;14.10;99.90;;;;;;5008873;28;20471;-82
2022/05/03 06:09:02;;;;;;;8.87;7.97;;;14.10;99.90;;;;;;5026680;28;20503;-83
2022/05/03 06:11:49;;;;;;;13.93;9.90;;;14.00;99.90;;;;;;5020173;28;20471;-84
2022/05/03 06:14:34;;;;;;;8.70;7.90;;;14.10;99.90;;;;;;5039783;28;21123;-83
2022/05/03 06:17:18;;;;;;;8.50;7.60;;;14.20;99.90;;;;;;5033512;28;20444;-83
2022/05/03 06:20:04;;;;;;;11.23;9.07;;;14.30;99.90;;;;;;5040329;28;20426;-83
2022/05/03 06:22:49;;;;;;;9.33;8.37;;;14.50;99.90;;;;;;5059903;28;20446;-84
2022/05/03 06:25:34;;;;;;;9.77;8.90;;;14.60;99.90;;;;;;5050199;28;20473;-84
2022/05/03 06:28:19;;;;;;;14.17;9.57;;;14.60;99.90;;;;;;5064030;28;20425;-81
2022/05/03 06:31:03;;;;;;;9.40;8.50;;;14.60;99.90;;;;;;5043198;28;20875;-83
2022/05/03 06:33:48;;;;;;;10.27;8.20;;;14.70;99.90;;;;;;5054506;28;20465;-84
2022/05/03 06:36:35;;;;;;;11.37;8.30;;;14.70;99.90;;;;;;5054802;28;20422;-83
2022/05/03 06:39:19;;;;;;;8.90;8.00;;;14.80;99.90;;;;;;5050756;28;20559;-84
2022/05/03 06:42:05;;;;;;;9.77;8.47;;;14.80;99.90;;;;;;5068657;28;20469;-83
2022/05/03 06:44:50;;;;;;;9.17;8.23;;;14.80;99.90;;;;;;5047533;28;20480;-82
2022/05/03 06:47:34;;;;;;;8.10;7.27;;;14.80;99.90;;;;;;5055666;28;20444;-82
2022/05/03 06:50:21;;;;;;;8.10;7.50;;;14.70;99.90;;;;;;5051253;28;20467;-81
2022/05/03 06:53:05;;;;;;;7.60;6.87;;;14.80;99.90;;;;;;5056991;28;20552;-82
2022/05/03 06:55:50;;;;;;;9.33;7.80;;;14.90;99.90;;;;;;5057931;28;20484;-82
2022/05/03 06:58:34;;;;;;;9.57;7.60;;;15.00;99.90;;;;;;5052134;28;20412;-82
2022/05/03 07:01:19;;;;;;;8.63;7.70;;;15.10;99.90;;;;;;5044339;28;20735;-83
2022/05/03 07:04:04;;;;;;;9.67;8.67;;;15.00;99.90;;;;;;5055856;28;20417;-83
2022/05/03 07:06:49;;;;;;;14.17;8.30;;;15.20;99.90;;;;;;5057488;28;20433;-83
2022/05/03 07:09:34;;;;;;;8.10;7.40;;;15.20;99.90;;;;;;5053575;28;21081;-81
2022/05/03 07:12:18;;;;;;;10.57;9.37;;;15.30;99.90;;;;;;5042616;28;20417;-83
2022/05/03 07:15:04;;;;;;;13.67;8.57;;;15.30;99.90;;;;;;5053164;28;20465;-81
2022/05/03 07:23:51;;;;;;;8.53;7.73;;;15.50;99.90;;;;;;5064940;28;20445;-83
2022/05/03 07:26:37;;;;;;;12.03;8.87;;;15.50;99.90;;;;;;5052867;28;20420;-82
2022/05/03 07:29:23;;;;;;;9.07;8.23;;;15.60;99.90;;;;;;5049839;28;20554;-82
2022/05/03 07:32:07;;;;;;;10.17;8.47;;;15.70;99.90;;;;;;5049402;28;20451;-79
2022/05/03 07:34:53;;;;;;;9.27;8.47;;;15.70;99.90;;;;;;5048085;28;20534;-80
2022/05/03 07:37:39;;;;;;;13.83;9.47;;;15.80;99.90;;;;;;5068250;28;20433;-82
2022/05/03 07:40:24;;;;;;;8.80;8.00;;;15.90;99.90;;;;;;5032766;28;20491;-81
2022/05/03 07:43:08;;;;;;;10.20;8.60;;;15.90;99.90;;;;;;5062123;28;20442;-81
2022/05/03 07:45:54;;;;;;;9.53;8.73;;;15.90;99.90;;;;;;5047086;28;20501;-80
2022/05/03 07:48:39;;;;;;;8.73;7.97;;;16.00;99.90;;;;;;5041969;28;20438;-78
2022/05/03 07:51:27;;;;;;;10.63;8.20;;;16.00;99.90;;;;;;5052534;28;20430;-82
2022/05/03 07:54:11;;;;;;;9.87;8.83;;;16.10;99.90;;;;;;5033476;28;20452;-80
2022/05/03 07:56:56;;;;;;;9.40;8.40;;;16.20;99.90;;;;;;5030736;28;20500;-82
2022/05/03 07:59:41;;;;;;;9.77;8.87;;;16.30;99.90;;;;;;5061428;28;20532;-80
2022/05/03 08:02:26;;;;;;;9.63;8.60;;;16.40;99.90;;;;;;5045769;28;20575;-78
2022/05/03 08:05:11;;;;;;;9.80;9.00;;;16.50;99.90;;;;;;5057437;28;20517;-82
2022/05/03 08:07:56;;;;;;;11.03;9.83;;;16.50;99.90;;;;;;5038465;28;20557;-81
2022/05/03 08:10:41;;;;;;;9.87;8.40;;;16.60;99.90;;;;;;5018656;28;20437;-82
2022/05/03 08:13:25;;;;;;;9.07;8.23;;;16.70;99.90;;;;;;5044520;28;20433;-84
2022/05/03 08:16:18;;;;;;;10.67;9.57;;;16.70;99.90;;;;;;5045726;28;20937;-82
2022/05/03 08:19:03;;;;;;;10.03;7.90;;;16.80;99.90;;;;;;5057235;28;20464;-81
2022/05/03 08:21:47;;;;;;;10.60;9.20;;;17.00;99.90;;;;;;5043790;28;20939;-83
2022/05/03 08:24:32;;;;;;;9.17;8.23;;;17.00;99.90;;;;;;5059101;28;20441;-83
2022/05/03 08:27:17;;;;;;;9.50;8.67;;;17.10;99.90;;;;;;5057414;28;20434;-83
2022/05/03 08:30:03;;;;;;;9.20;8.30;;;17.20;99.90;;;;;;5057387;28;20463;-80
2022/05/03 08:32:49;;;;;;;9.93;8.40;;;17.20;99.90;;;;;;5071603;28;20472;-81
2022/05/03 08:35:33;;;;;;;10.63;8.40;;;17.30;99.90;;;;;;5067428;28;20469;-83
2022/05/03 08:44:24;;;;;;;10.40;7.77;;;17.90;99.90;;;;;;5057595;28;20425;-83
2022/05/03 08:47:09;;;;;;;9.40;8.60;;;17.90;99.90;;;;;;5026565;28;20430;-81
2022/05/03 08:50:19;;;;;;;10.20;8.48;;;18.00;99.90;;;;;;5047931;28;20423;-82
2022/05/03 08:53:05;;;;;;;8.40;7.60;;;18.00;99.90;;;;;;5041000;28;20186;-83
2022/05/03 08:55:50;;;;;;;10.10;8.30;;;18.20;99.90;;;;;;5041926;28;20481;-82
2022/05/03 08:58:35;;;;;;;8.93;7.93;;;18.30;99.90;;;;;;5019791;28;20484;-82
2022/05/03 09:01:22;;;;;;;10.53;8.60;;;18.40;99.90;;;;;;5046703;28;20438;-82
2022/05/03 09:04:06;;;;;;;9.70;8.80;;;18.50;99.90;;;;;;5045384;28;20421;-82
2022/05/03 09:06:51;;;;;;;9.10;8.30;;;18.60;99.90;;;;;;5032094;28;20451;-83
2022/05/03 09:09:36;;;;;;;8.17;7.27;;;18.70;99.90;;;;;;5048304;28;20429;-83
2022/05/03 09:12:31;;;;;;;13.50;7.07;;;18.80;99.90;;;;;;5044789;28;20477;-82
2022/05/03 09:15:29;;;;;;;9.97;8.73;;;19.00;99.90;;;;;;5052839;28;20492;-82
2022/05/03 09:18:26;;;;;;;8.53;7.53;;;19.00;99.90;;;;;;5034982;28;20454;-81
2022/05/03 09:24:22;;;;;;;9.13;7.20;;;19.40;99.90;;;;;;5048208;28;20429;-80
2022/05/03 09:27:25;;;;;;;7.70;7.00;;;19.50;99.90;;;;;;5035435;28;20449;-80
2022/05/03 09:30:10;;;;;;;9.23;7.37;;;19.60;99.90;;;;;;5047440;28;20515;-82
2022/05/03 09:32:57;;;;;;;8.30;7.60;;;19.60;99.90;;;;;;5055071;28;20489;-82
2022/05/03 09:35:41;;;;;;;8.17;6.97;;;19.60;99.90;;;;;;5027889;28;20456;-81
2022/05/03 09:38:26;;;;;;;8.93;6.87;;;19.80;99.90;;;;;;5041844;28;20505;-82
2022/05/03 09:41:14;;;;;;;7.53;6.83;;;19.60;99.90;;;;;;5041467;28;20425;-80
2022/05/03 09:44:02;;;;;;;8.53;7.73;;;19.90;99.90;;;;;;5036936;28;20428;-82
2022/05/03 09:46:54;;;;;;;10.17;8.30;;;20.00;99.90;;;;;;5041650;28;20444;-81
2022/05/03 09:49:40;;;;;;;9.57;6.87;;;20.10;99.90;;;;;;5051631;28;20452;-83
2022/05/03 09:52:29;;;;;;;13.70;7.77;;;20.10;99.90;;;;;;5040435;28;20576;-82
2022/05/03 09:55:14;;;;;;;7.10;6.50;;;19.40;99.90;;;;;;5042134;28;20476;-81
2022/05/03 09:58:02;;;;;;;7.60;6.93;;;19.20;99.90;;;;;;5055715;28;20425;-81
2022/05/03 10:00:48;;;;;;;6.80;6.27;;;19.70;99.90;;;;;;5052911;28;20560;-81
2022/05/03 10:03:33;;;;;;;7.80;6.33;;;20.10;99.90;;;;;;5027328;28;20584;-80
2022/05/03 10:06:20;;;;;;;6.33;5.83;;;20.20;99.90;;;;;;5046795;28;20819;-78
2022/05/03 10:09:05;;;;;;;7.70;6.37;;;20.40;99.90;;;;;;5043634;28;20426;-81
2022/05/03 10:11:51;;;;;;;7.33;6.13;;;20.60;99.90;;;;;;5044322;28;20426;-77
2022/05/03 10:14:36;;;;;;;6.63;6.00;;;20.50;99.90;;;;;;5046524;28;20906;-82
2022/05/03 10:20:50;;;;;;;7.13;6.47;;;20.40;99.90;;;;;;5060276;28;20483;-78
2022/05/03 10:23:35;;;;;;;6.37;5.87;;;20.30;99.90;;;;;;5059431;28;20472;-81
2022/05/03 10:26:20;;;;;;;8.20;5.80;;;20.70;99.90;;;;;;5046068;28;20472;-80
2022/05/03 10:29:07;;;;;;;5.33;4.93;;;20.90;99.90;;;;;;5065879;28;20522;-79
2022/05/03 10:32:03;;;;;;;7.17;5.90;;;21.20;99.90;;;;;;5007881;28;20526;-81
2022/05/03 10:34:56;;;;;;;6.00;5.33;;;20.40;99.90;;;;;;5050081;28;20502;-80
2022/05/03 10:38:02;;;;;;;7.50;5.63;;;21.30;99.90;;;;;;5046346;28;20543;-78
2022/05/03 10:40:49;;;;;;;6.00;5.50;;;20.90;99.90;;;;;;5048569;28;20421;-79
2022/05/03 10:43:33;;;;;;;6.30;5.70;;;21.60;99.90;;;;;;5045690;28;20597;-80
2022/05/03 10:46:22;;;;;;;5.70;5.17;;;21.20;99.90;;;;;;5060361;28;20448;-79
2022/05/03 10:49:13;;;;;;;7.53;5.10;;;21.60;99.90;;;;;;5046044;28;20429;-80
2022/05/03 10:51:58;;;;;;;5.90;5.33;;;21.70;99.90;;;;;;5036232;28;20428;-82
2022/05/03 10:55:06;;;;;;;6.90;5.00;;;22.10;99.90;;;;;;5063514;28;20461;-78
2022/05/03 10:58:20;;;;;;;6.47;5.83;;;22.50;99.90;;;;;;5050198;28;20422;-81
2022/05/03 11:01:19;;;;;;;7.00;6.40;;;22.80;99.90;;;;;;5068737;28;20485;-83
2022/05/03 11:04:11;;;;;;;6.00;5.40;;;22.50;99.90;;;;;;5053092;28;20450;-80
2022/05/03 11:07:01;;;;;;;5.63;5.13;;;22.00;99.90;;;;;;5057812;28;20500;-81
2022/05/03 11:09:46;;;;;;;5.50;5.10;;;21.90;99.90;;;;;;5030687;28;20502;-79
2022/05/03 11:12:48;;;;;;;6.83;4.73;;;22.70;99.90;;;;;;5045483;28;20437;-83
2022/05/03 11:15:56;;;;;;;5.80;5.30;;;22.90;99.90;;;;;;5057389;28;20514;-82
2022/05/03 11:18:43;;;;;;;6.13;5.47;;;22.90;98.70;;;;;;5048405;28;20499;-82
2022/05/03 11:21:28;;;;;;;7.10;4.93;;;22.10;99.00;;;;;;5059390;28;20461;-82
2022/05/03 11:24:24;;;;;;;5.03;4.57;;;22.00;99.10;;;;;;5069766;28;20804;-81
2022/05/03 11:27:10;;;;;;;4.63;4.23;;;23.00;97.60;;;;;;5057660;28;20954;-85
2022/05/03 11:29:58;;;;;;;5.50;5.10;;;23.40;94.60;;;;;;5046732;28;20476;-83
2022/05/03 11:32:43;;;;;;;5.70;5.17;;;22.80;96.30;;;;;;5062918;28;20421;-83
2022/05/03 11:35:29;;;;;;;5.03;4.63;;;23.00;94.40;;;;;;5056013;28;20505;-82
2022/05/03 11:38:13;;;;;;;5.20;4.70;;;22.90;91.30;;;;;;5051441;28;20430;-84
2022/05/03 11:40:59;;;;;;;5.80;5.00;;;23.20;89.30;;;;;;5047065;28;20509;-81
2022/05/03 11:43:44;;;;;;;4.97;4.67;;;21.90;91.30;;;;;;5047760;28;20421;-84
2022/05/03 11:46:29;;;;;;;5.00;4.60;;;22.30;91.50;;;;;;5051607;28;20436;-84
2022/05/03 11:49:15;;;;;;;4.80;4.40;;;22.50;91.10;;;;;;5053707;28;20431;-83
2022/05/03 11:58:03;;;;;;;6.20;5.80;;;25.50;82.70;;;;;;5042981;28;20197;-82
2022/05/03 12:00:49;;;;;;;7.60;4.83;;;26.60;81.40;;;;;;5045292;28;21933;-82
2022/05/03 12:03:50;;;;;;;4.60;4.30;;;27.20;72.70;;;;;;5029518;28;20436;-81
2022/05/03 12:06:43;;;;;;;5.17;4.77;;;25.70;68.70;;;;;;5029116;28;20529;-81
2022/05/03 12:09:37;;;;;;;7.27;6.67;;;26.10;68.00;;;;;;5023700;28;20496;-79
2022/05/03 12:12:53;;;;;;;4.93;4.50;;;24.80;69.60;;;;;;5012156;28;20757;-81
2022/05/03 12:15:29;;;;;;;8.87;4.70;;;24.70;75.60;;;;;;5027536;28;20470;-80
2022/05/03 12:18:19;;;;;;;5.40;5.10;;;24.20;75.10;;;;;;5028103;28;20434;-82
2022/05/03 12:21:09;;;;;;;7.33;5.40;;;22.60;77.30;;;;;;5019707;28;21402;-82
2022/05/03 12:24:05;;;;;;;5.53;5.00;;;22.00;79.50;;;;;;5018399;28;20463;-85
2022/05/03 12:26:51;;;;;;;4.73;4.43;;;23.40;79.10;;;;;;5023348;28;20409;-83
2022/05/03 12:29:43;;;;;;;6.23;5.63;;;24.60;81.30;;;;;;5039640;28;20424;-84
2022/05/03 12:32:33;;;;;;;5.60;5.10;;;26.10;71.00;;;;;;5048467;28;20434;-83
2022/05/03 12:35:42;;;;;;;8.57;5.17;;;25.30;67.80;;;;;;5041156;28;20504;-84
2022/05/03 12:38:27;;;;;;;6.00;5.50;;;25.10;70.00;;;;;;4985839;28;20758;-83
2022/05/03 12:41:24;;;;;;;7.40;5.60;;;25.20;67.40;;;;;;4995114;28;20492;-84
2022/05/03 12:44:12;;;;;;;7.33;4.90;;;24.80;68.20;;;;;;4985045;28;20440;-81
2022/05/03 12:47:04;;;;;;;6.07;5.53;;;26.70;67.70;;;;;;4963447;28;20471;-80
2022/05/03 12:49:49;;;;;;;5.93;5.43;;;27.70;69.30;;;;;;4979094;28;20467;-80
2022/05/03 12:52:33;;;;;;;5.20;4.80;;;28.80;64.20;;;;;;4992795;28;20679;-82
2022/05/03 12:55:19;;;;;;;5.47;4.97;;;29.20;61.80;;;;;;4982627;28;20246;-79
2022/05/03 13:00:58;;;;;;;5.90;5.40;;;29.70;60.70;;;;;;4990737;28;20228;-80
2022/05/03 13:03:42;;;;;;;5.50;5.10;;;28.50;59.60;;;;;;4973703;28;20336;-81
2022/05/03 13:06:27;;;;;;;5.53;5.13;;;29.40;59.30;;;;;;4977049;28;20236;-82
2022/05/03 13:09:12;;;;;;;5.60;5.03;;;28.90;58.30;;;;;;4992091;28;20222;-82
2022/05/03 13:11:58;;;;;;;4.87;4.47;;;26.30;58.30;;;;;;5026319;28;20187;-83
2022/05/03 13:14:44;;;;;;;4.20;3.90;;;27.40;59.30;;;;;;5037805;28;20729;-82
2022/05/03 13:17:29;;;;;;;4.30;3.90;;;27.60;55.20;;;;;;5034155;28;20179;-80
2022/05/03 13:20:13;;;;;;;5.00;4.10;;;27.40;56.30;;;;;;5015229;28;20414;-81
2022/05/03 13:22:58;;;;;;;4.77;4.37;;;27.10;57.00;;;;;;5015836;28;20484;-81
2022/05/03 13:25:44;;;;;;;4.17;3.87;;;26.30;55.20;;;;;;5031813;28;20425;-82
2022/05/03 13:28:29;;;;;;;4.60;3.90;;;26.60;56.50;;;;;;5021650;28;20460;-81
2022/05/03 13:31:14;;;;;;;4.63;4.22;;;27.50;54.30;;;;;;5021101;28;20471;-81
2022/05/03 13:33:58;;;;;;;4.90;4.33;;;27.60;55.50;;;;;;4980184;28;20212;-84
2022/05/03 13:42:39;;;;;;;4.80;4.50;;;26.60;54.50;;;;;;4969680;28;20464;-80
2022/05/03 13:45:25;;;;;;;7.10;5.43;;;25.60;54.80;;;;;;4972082;28;20527;-81
2022/05/03 13:48:11;;;;;;;5.43;5.00;;;26.40;57.20;;;;;;4976623;28;20446;-82
2022/05/03 13:51:05;;;;;;;5.90;5.40;;;27.40;57.70;;;;;;4974692;28;20751;-80
2022/05/03 13:53:50;;;;;;;4.90;4.50;;;28.00;57.00;;;;;;4981542;28;20883;-84
2022/05/03 13:56:35;;;;;;;5.60;5.20;;;26.50;53.70;;;;;;4949738;28;20512;-82
2022/05/03 13:59:19;;;;;;;5.40;5.00;;;26.30;55.40;;;;;;4976508;28;20440;-80
2022/05/03 14:02:09;;;;;;;5.90;5.50;;;26.00;55.50;;;;;;4948070;28;20176;-84
2022/05/03 14:04:54;;;;;;;5.40;5.00;;;27.70;56.10;;;;;;5003038;28;20225;-80
2022/05/03 14:07:41;;;;;;;6.17;5.57;;;28.50;54.90;;;;;;5060310;28;20194;-79
2022/05/03 14:10:26;;;;;;;5.00;4.50;;;28.20;53.80;;;;;;5059391;28;20329;-82
2022/05/03 14:13:10;;;;;;;6.10;5.60;;;28.30;55.00;;;;;;5043702;28;20206;-79
2022/05/03 14:15:55;;;;;;;6.33;5.73;;;26.60;54.30;;;;;;5058641;28;20307;-82
2022/05/03 14:18:40;;;;;;;6.40;5.80;;;26.50;56.80;;;;;;5057056;28;20195;-82
2022/05/03 14:21:25;;;;;;;5.40;5.00;;;25.80;57.80;;;;;;5051285;28;20417;-83
2022/05/03 14:24:10;;;;;;;5.80;5.00;;;25.20;57.50;;;;;;5065522;28;20468;-81
2022/05/03 14:27:00;;;;;;;6.97;5.70;;;25.00;59.20;;;;;;5073791;28;20424;-81
2022/05/03 14:29:45;;;;;;;4.80;4.40;;;25.10;60.60;;;;;;5021026;28;20433;-81
2022/05/03 14:32:33;;;;;;;5.60;5.10;;;25.70;60.20;;;;;;5063156;28;20564;-80
2022/05/03 14:35:18;;;;;;;5.97;5.20;;;26.10;60.50;;;;;;5034506;28;20456;-82
2022/05/03 14:38:03;;;;;;;5.20;4.73;;;26.40;60.30;;;;;;5054756;28;20412;-79
2022/05/03 14:40:47;;;;;;;6.77;5.43;;;27.00;59.80;;;;;;5073534;28;20428;-81
2022/05/03 14:43:32;;;;;;;6.40;5.57;;;27.30;58.50;;;;;;5063454;28;20428;-79
2022/05/03 14:46:17;;;;;;;5.67;5.07;;;27.10;59.00;;;;;;5035937;28;20430;-81
2022/05/03 14:49:02;;;;;;;7.27;5.93;;;26.90;59.10;;;;;;5037809;28;20424;-80
2022/05/03 14:51:46;;;;;;;5.67;5.27;;;26.40;59.20;;;;;;5032150;28;20421;-82
2022/05/03 14:54:34;;;;;;;9.53;5.90;;;25.70;60.30;;;;;;5052678;28;20526;-80
2022/05/03 15:03:27;;;;;;;7.20;6.50;;;24.00;63.90;;;;;;5057295;28;20425;-81
2022/05/03 15:06:13;;;;;;;8.10;5.37;;;24.00;62.00;;;;;;5042103;28;20521;-80
2022/05/03 15:08:58;;;;;;;5.53;5.13;;;23.50;61.40;;;;;;5055883;28;20419;-80
2022/05/03 15:11:42;;;;;;;5.87;5.47;;;23.10;63.20;;;;;;5038669;28;20484;-80
2022/05/03 15:14:27;;;;;;;5.77;5.27;;;22.70;63.10;;;;;;5049087;28;20485;-81
2022/05/03 15:17:12;;;;;;;6.70;6.20;;;22.10;64.00;;;;;;5027646;28;20984;-81
2022/05/03 15:19:57;;;;;;;5.43;5.03;;;21.80;64.00;;;;;;5053562;28;20413;-81
2022/05/03 15:25:44;;;;;;;5.77;5.30;;;21.70;66.20;;;;;;5069122;28;20429;-82